sensor_id;sensor_type;location;lat;lon;timestamp;P1;durP1;ratioP1;P2;durP2;ratioP2
20080;SDS011;10200;49.232;9.222;2024-01-27T00:02:21;9.70;;;5.10;;
20080;SDS011;10200;49.232;9.222;2024-01-27T00:04:46;12.47;;;6.73;;
20080;SDS011;10200;49.232;9.222;2024-01-27T00:07:13;10.57;;;5.47;;
20080;SDS011;10200;49.232;9.222;2024-01-27T00:09:39;11.83;;;7.03;;
20080;SDS011;10200;49.232;9.222;2024-01-27T00:12:06;12.90;;;6.33;;
20080;SDS011;10200;49.232;9.222;2024-01-27T00:14:31;9.67;;;6.57;;
20080;SDS011;10200;49.232;9.222;2024-01-27T00:16:57;11.80;;;6.47;;
20080;SDS011;10200;49.232;9.222;2024-01-27T00:19:23;10.37;;;6.67;;
20080;SDS011;10200;49.232;9.222;2024-01-27T00:21:48;10.97;;;5.90;;
20080;SDS011;10200;49.232;9.222;2024-01-27T00:24:14;9.83;;;5.90;;
20080;SDS011;10200;49.232;9.222;2024-01-27T00:26:40;8.60;;;5.63;;
20080;SDS011;10200;49.232;9.222;2024-01-27T00:29:06;9.97;;;6.30;;
20080;SDS011;10200;49.232;9.222;2024-01-27T00:31:31;10.20;;;5.97;;
20080;SDS011;10200;49.232;9.222;2024-01-27T00:33:57;7.60;;;5.73;;
20080;SDS011;10200;49.232;9.222;2024-01-27T00:36:22;10.03;;;6.87;;
20080;SDS011;10200;49.232;9.222;2024-01-27T00:38:49;8.67;;;5.93;;
20080;SDS011;10200;49.232;9.222;2024-01-27T00:41:16;9.97;;;5.93;;
20080;SDS011;10200;49.232;9.222;2024-01-27T00:43:42;11.60;;;5.70;;
20080;SDS011;10200;49.232;9.222;2024-01-27T00:46:07;11.27;;;6.43;;
20080;SDS011;10200;49.232;9.222;2024-01-27T00:48:35;9.80;;;5.60;;
20080;SDS011;10200;49.232;9.222;2024-01-27T00:51:01;11.00;;;6.23;;
20080;SDS011;10200;49.232;9.222;2024-01-27T00:53:26;9.57;;;5.07;;
20080;SDS011;10200;49.232;9.222;2024-01-27T00:55:52;9.30;;;5.43;;
20080;SDS011;10200;49.232;9.222;2024-01-27T00:58:17;10.37;;;5.77;;
20080;SDS011;10200;49.232;9.222;2024-01-27T01:00:43;13.80;;;6.40;;
20080;SDS011;10200;49.232;9.222;2024-01-27T01:03:09;12.07;;;5.90;;
20080;SDS011;10200;49.232;9.222;2024-01-27T01:05:34;11.03;;;6.60;;
20080;SDS011;10200;49.232;9.222;2024-01-27T01:08:00;12.60;;;6.47;;
20080;SDS011;10200;49.232;9.222;2024-01-27T01:10:25;9.13;;;6.20;;
20080;SDS011;10200;49.232;9.222;2024-01-27T01:12:51;12.00;;;7.23;;
20080;SDS011;10200;49.232;9.222;2024-01-27T01:15:17;9.20;;;5.30;;
20080;SDS011;10200;49.232;9.222;2024-01-27T01:17:43;9.67;;;6.50;;
20080;SDS011;10200;49.232;9.222;2024-01-27T01:20:10;9.83;;;5.67;;
20080;SDS011;10200;49.232;9.222;2024-01-27T01:22:35;9.33;;;5.60;;
20080;SDS011;10200;49.232;9.222;2024-01-27T01:25:01;12.90;;;6.60;;
20080;SDS011;10200;49.232;9.222;2024-01-27T01:27:27;7.73;;;5.67;;
20080;SDS011;10200;49.232;9.222;2024-01-27T01:29:52;8.47;;;5.20;;
20080;SDS011;10200;49.232;9.222;2024-01-27T01:32:18;7.80;;;5.97;;
20080;SDS011;10200;49.232;9.222;2024-01-27T01:34:45;10.33;;;6.13;;
20080;SDS011;10200;49.232;9.222;2024-01-27T01:37:13;9.33;;;4.97;;
20080;SDS011;10200;49.232;9.222;2024-01-27T01:39:38;9.23;;;4.90;;
20080;SDS011;10200;49.232;9.222;2024-01-27T01:42:04;5.27;;;4.00;;
20080;SDS011;10200;49.232;9.222;2024-01-27T01:44:30;8.47;;;5.50;;
20080;SDS011;10200;49.232;9.222;2024-01-27T01:46:59;7.93;;;4.93;;
20080;SDS011;10200;49.232;9.222;2024-01-27T01:49:25;12.23;;;5.83;;
20080;SDS011;10200;49.232;9.222;2024-01-27T01:51:51;7.47;;;6.17;;
20080;SDS011;10200;49.232;9.222;2024-01-27T01:54:17;8.80;;;5.67;;
20080;SDS011;10200;49.232;9.222;2024-01-27T01:56:44;7.70;;;4.93;;
20080;SDS011;10200;49.232;9.222;2024-01-27T01:59:10;8.77;;;5.77;;
20080;SDS011;10200;49.232;9.222;2024-01-27T02:01:37;8.73;;;5.60;;
20080;SDS011;10200;49.232;9.222;2024-01-27T02:04:03;7.10;;;5.07;;
20080;SDS011;10200;49.232;9.222;2024-01-27T02:06:29;7.43;;;5.03;;
20080;SDS011;10200;49.232;9.222;2024-01-27T02:08:55;8.70;;;5.00;;
20080;SDS011;10200;49.232;9.222;2024-01-27T02:11:21;7.47;;;5.33;;
20080;SDS011;10200;49.232;9.222;2024-01-27T02:13:47;8.63;;;5.50;;
20080;SDS011;10200;49.232;9.222;2024-01-27T02:16:13;8.50;;;4.90;;
20080;SDS011;10200;49.232;9.222;2024-01-27T02:18:39;6.93;;;4.80;;
20080;SDS011;10200;49.232;9.222;2024-01-27T02:21:04;11.90;;;5.67;;
20080;SDS011;10200;49.232;9.222;2024-01-27T02:23:30;9.00;;;5.70;;
20080;SDS011;10200;49.232;9.222;2024-01-27T02:25:56;7.90;;;4.57;;
20080;SDS011;10200;49.232;9.222;2024-01-27T02:28:23;5.43;;;4.23;;
20080;SDS011;10200;49.232;9.222;2024-01-27T02:30:49;5.17;;;3.93;;
20080;SDS011;10200;49.232;9.222;2024-01-27T02:33:15;4.23;;;3.83;;
20080;SDS011;10200;49.232;9.222;2024-01-27T02:35:43;4.17;;;3.77;;
20080;SDS011;10200;49.232;9.222;2024-01-27T02:38:09;5.20;;;3.60;;
20080;SDS011;10200;49.232;9.222;2024-01-27T02:40:34;4.40;;;3.90;;
20080;SDS011;10200;49.232;9.222;2024-01-27T02:43:01;4.60;;;4.20;;
20080;SDS011;10200;49.232;9.222;2024-01-27T02:45:28;6.07;;;3.90;;
20080;SDS011;10200;49.232;9.222;2024-01-27T02:47:54;4.60;;;4.20;;
20080;SDS011;10200;49.232;9.222;2024-01-27T02:50:19;6.00;;;3.90;;
20080;SDS011;10200;49.232;9.222;2024-01-27T02:52:46;3.90;;;3.50;;
20080;SDS011;10200;49.232;9.222;2024-01-27T02:55:12;5.27;;;4.53;;
20080;SDS011;10200;49.232;9.222;2024-01-27T02:57:37;5.27;;;4.40;;
20080;SDS011;10200;49.232;9.222;2024-01-27T03:00:03;4.97;;;3.77;;
20080;SDS011;10200;49.232;9.222;2024-01-27T03:02:30;7.07;;;4.43;;
20080;SDS011;10200;49.232;9.222;2024-01-27T03:04:55;7.47;;;4.20;;
20080;SDS011;10200;49.232;9.222;2024-01-27T03:07:21;6.60;;;4.30;;
20080;SDS011;10200;49.232;9.222;2024-01-27T03:09:47;10.07;;;4.50;;
20080;SDS011;10200;49.232;9.222;2024-01-27T03:12:12;6.17;;;4.57;;
20080;SDS011;10200;49.232;9.222;2024-01-27T03:14:40;7.10;;;4.60;;
20080;SDS011;10200;49.232;9.222;2024-01-27T03:17:06;6.53;;;4.73;;
20080;SDS011;10200;49.232;9.222;2024-01-27T03:19:32;9.43;;;5.10;;
20080;SDS011;10200;49.232;9.222;2024-01-27T03:21:58;6.67;;;5.27;;
20080;SDS011;10200;49.232;9.222;2024-01-27T03:24:23;10.43;;;5.10;;
20080;SDS011;10200;49.232;9.222;2024-01-27T03:26:49;6.27;;;5.03;;
20080;SDS011;10200;49.232;9.222;2024-01-27T03:29:15;8.17;;;4.60;;
20080;SDS011;10200;49.232;9.222;2024-01-27T03:31:41;6.63;;;4.67;;
20080;SDS011;10200;49.232;9.222;2024-01-27T03:34:08;6.63;;;4.40;;
20080;SDS011;10200;49.232;9.222;2024-01-27T03:36:33;6.83;;;4.63;;
20080;SDS011;10200;49.232;9.222;2024-01-27T03:39:00;5.50;;;4.20;;
20080;SDS011;10200;49.232;9.222;2024-01-27T03:41:26;5.37;;;4.70;;
20080;SDS011;10200;49.232;9.222;2024-01-27T03:43:51;7.77;;;5.47;;
20080;SDS011;10200;49.232;9.222;2024-01-27T03:46:17;10.40;;;4.93;;
20080;SDS011;10200;49.232;9.222;2024-01-27T03:48:44;5.97;;;4.90;;
20080;SDS011;10200;49.232;9.222;2024-01-27T03:51:09;8.40;;;5.57;;
20080;SDS011;10200;49.232;9.222;2024-01-27T03:53:36;9.93;;;5.57;;
20080;SDS011;10200;49.232;9.222;2024-01-27T03:56:01;10.27;;;6.07;;
20080;SDS011;10200;49.232;9.222;2024-01-27T03:58:30;8.20;;;5.83;;
20080;SDS011;10200;49.232;9.222;2024-01-27T04:00:58;11.03;;;5.17;;
20080;SDS011;10200;49.232;9.222;2024-01-27T04:03:24;7.37;;;4.67;;
20080;SDS011;10200;49.232;9.222;2024-01-27T04:05:50;6.80;;;4.50;;
20080;SDS011;10200;49.232;9.222;2024-01-27T04:08:15;8.40;;;4.83;;
20080;SDS011;10200;49.232;9.222;2024-01-27T04:10:41;5.27;;;4.23;;
20080;SDS011;10200;49.232;9.222;2024-01-27T04:13:07;4.87;;;4.03;;
20080;SDS011;10200;49.232;9.222;2024-01-27T04:15:33;7.10;;;4.60;;
20080;SDS011;10200;49.232;9.222;2024-01-27T04:18:03;8.93;;;5.33;;
20080;SDS011;10200;49.232;9.222;2024-01-27T04:20:30;7.37;;;4.97;;
20080;SDS011;10200;49.232;9.222;2024-01-27T04:22:56;9.03;;;4.90;;
20080;SDS011;10200;49.232;9.222;2024-01-27T04:25:22;6.80;;;4.50;;
20080;SDS011;10200;49.232;9.222;2024-01-27T04:27:47;10.43;;;5.17;;
20080;SDS011;10200;49.232;9.222;2024-01-27T04:30:13;5.83;;;4.43;;
20080;SDS011;10200;49.232;9.222;2024-01-27T04:32:38;8.07;;;5.13;;
20080;SDS011;10200;49.232;9.222;2024-01-27T04:35:06;6.97;;;4.80;;
20080;SDS011;10200;49.232;9.222;2024-01-27T04:37:34;6.47;;;4.87;;
20080;SDS011;10200;49.232;9.222;2024-01-27T04:40:00;14.97;;;5.40;;
20080;SDS011;10200;49.232;9.222;2024-01-27T04:42:25;6.30;;;4.57;;
20080;SDS011;10200;49.232;9.222;2024-01-27T04:44:51;6.47;;;5.07;;
20080;SDS011;10200;49.232;9.222;2024-01-27T04:47:17;8.57;;;5.13;;
20080;SDS011;10200;49.232;9.222;2024-01-27T04:49:42;9.53;;;5.97;;
20080;SDS011;10200;49.232;9.222;2024-01-27T04:52:08;6.97;;;5.00;;
20080;SDS011;10200;49.232;9.222;2024-01-27T04:54:33;8.37;;;5.43;;
20080;SDS011;10200;49.232;9.222;2024-01-27T04:56:59;11.03;;;5.80;;
20080;SDS011;10200;49.232;9.222;2024-01-27T04:59:26;7.40;;;5.53;;
20080;SDS011;10200;49.232;9.222;2024-01-27T05:01:51;7.47;;;5.63;;
20080;SDS011;10200;49.232;9.222;2024-01-27T05:04:17;6.23;;;4.60;;
20080;SDS011;10200;49.232;9.222;2024-01-27T05:06:43;6.17;;;4.63;;
20080;SDS011;10200;49.232;9.222;2024-01-27T05:09:10;5.87;;;4.43;;
20080;SDS011;10200;49.232;9.222;2024-01-27T05:11:37;8.57;;;4.93;;
20080;SDS011;10200;49.232;9.222;2024-01-27T05:14:03;9.87;;;5.10;;
20080;SDS011;10200;49.232;9.222;2024-01-27T05:16:29;6.63;;;4.40;;
20080;SDS011;10200;49.232;9.222;2024-01-27T05:18:55;6.63;;;4.83;;
20080;SDS011;10200;49.232;9.222;2024-01-27T05:21:21;7.70;;;4.50;;
20080;SDS011;10200;49.232;9.222;2024-01-27T05:23:47;6.40;;;4.10;;
20080;SDS011;10200;49.232;9.222;2024-01-27T05:26:12;10.07;;;5.00;;
20080;SDS011;10200;49.232;9.222;2024-01-27T05:28:39;9.37;;;4.73;;
20080;SDS011;10200;49.232;9.222;2024-01-27T05:31:08;6.13;;;4.33;;
20080;SDS011;10200;49.232;9.222;2024-01-27T05:33:34;8.10;;;4.33;;
20080;SDS011;10200;49.232;9.222;2024-01-27T05:36:00;7.43;;;4.47;;
20080;SDS011;10200;49.232;9.222;2024-01-27T05:38:26;8.30;;;4.43;;
20080;SDS011;10200;49.232;9.222;2024-01-27T05:40:53;8.17;;;4.60;;
20080;SDS011;10200;49.232;9.222;2024-01-27T05:43:19;8.83;;;5.13;;
20080;SDS011;10200;49.232;9.222;2024-01-27T05:45:45;7.87;;;4.77;;
20080;SDS011;10200;49.232;9.222;2024-01-27T05:48:11;5.90;;;3.93;;
20080;SDS011;10200;49.232;9.222;2024-01-27T05:50:37;5.33;;;4.27;;
20080;SDS011;10200;49.232;9.222;2024-01-27T05:53:05;5.37;;;4.00;;
20080;SDS011;10200;49.232;9.222;2024-01-27T05:55:31;5.33;;;4.00;;
20080;SDS011;10200;49.232;9.222;2024-01-27T05:57:58;5.97;;;4.30;;
20080;SDS011;10200;49.232;9.222;2024-01-27T06:00:24;6.70;;;4.40;;
20080;SDS011;10200;49.232;9.222;2024-01-27T06:02:50;5.77;;;4.00;;
20080;SDS011;10200;49.232;9.222;2024-01-27T06:05:16;5.40;;;4.23;;
20080;SDS011;10200;49.232;9.222;2024-01-27T06:07:42;5.60;;;4.13;;
20080;SDS011;10200;49.232;9.222;2024-01-27T06:10:08;5.23;;;3.60;;
20080;SDS011;10200;49.232;9.222;2024-01-27T06:12:34;5.90;;;4.37;;
20080;SDS011;10200;49.232;9.222;2024-01-27T06:15:01;5.87;;;3.80;;
20080;SDS011;10200;49.232;9.222;2024-01-27T06:17:26;5.03;;;3.53;;
20080;SDS011;10200;49.232;9.222;2024-01-27T06:19:52;4.77;;;4.10;;
20080;SDS011;10200;49.232;9.222;2024-01-27T06:22:18;5.90;;;4.40;;
20080;SDS011;10200;49.232;9.222;2024-01-27T06:24:43;7.30;;;4.43;;
20080;SDS011;10200;49.232;9.222;2024-01-27T06:27:10;9.27;;;3.97;;
20080;SDS011;10200;49.232;9.222;2024-01-27T06:29:36;6.20;;;4.50;;
20080;SDS011;10200;49.232;9.222;2024-01-27T06:32:03;6.83;;;4.17;;
20080;SDS011;10200;49.232;9.222;2024-01-27T06:34:29;6.80;;;3.77;;
20080;SDS011;10200;49.232;9.222;2024-01-27T06:36:56;7.50;;;4.60;;
20080;SDS011;10200;49.232;9.222;2024-01-27T06:39:22;7.47;;;4.47;;
20080;SDS011;10200;49.232;9.222;2024-01-27T06:41:48;5.23;;;3.80;;
20080;SDS011;10200;49.232;9.222;2024-01-27T06:44:14;5.43;;;3.80;;
20080;SDS011;10200;49.232;9.222;2024-01-27T06:46:40;4.83;;;3.87;;
20080;SDS011;10200;49.232;9.222;2024-01-27T06:49:06;6.43;;;4.40;;
20080;SDS011;10200;49.232;9.222;2024-01-27T06:51:32;5.60;;;3.73;;
20080;SDS011;10200;49.232;9.222;2024-01-27T06:53:57;5.87;;;4.30;;
20080;SDS011;10200;49.232;9.222;2024-01-27T06:56:23;9.17;;;5.50;;
20080;SDS011;10200;49.232;9.222;2024-01-27T06:58:48;8.13;;;5.00;;
20080;SDS011;10200;49.232;9.222;2024-01-27T07:01:14;6.63;;;5.17;;
20080;SDS011;10200;49.232;9.222;2024-01-27T07:03:40;13.73;;;4.83;;
20080;SDS011;10200;49.232;9.222;2024-01-27T07:06:05;7.70;;;5.73;;
20080;SDS011;10200;49.232;9.222;2024-01-27T07:08:31;12.10;;;7.03;;
20080;SDS011;10200;49.232;9.222;2024-01-27T07:10:57;12.40;;;8.30;;
20080;SDS011;10200;49.232;9.222;2024-01-27T07:13:23;20.13;;;10.93;;
20080;SDS011;10200;49.232;9.222;2024-01-27T07:15:49;16.67;;;9.87;;
20080;SDS011;10200;49.232;9.222;2024-01-27T07:18:15;20.07;;;10.53;;
20080;SDS011;10200;49.232;9.222;2024-01-27T07:20:42;20.57;;;11.20;;
20080;SDS011;10200;49.232;9.222;2024-01-27T07:23:08;25.27;;;11.20;;
20080;SDS011;10200;49.232;9.222;2024-01-27T07:25:33;22.67;;;10.47;;
20080;SDS011;10200;49.232;9.222;2024-01-27T07:27:59;19.37;;;10.63;;
20080;SDS011;10200;49.232;9.222;2024-01-27T07:30:25;16.23;;;9.23;;
20080;SDS011;10200;49.232;9.222;2024-01-27T07:32:50;17.10;;;9.60;;
20080;SDS011;10200;49.232;9.222;2024-01-27T07:35:16;21.40;;;9.33;;
20080;SDS011;10200;49.232;9.222;2024-01-27T07:37:42;23.30;;;9.17;;
20080;SDS011;10200;49.232;9.222;2024-01-27T07:40:08;13.30;;;7.57;;
20080;SDS011;10200;49.232;9.222;2024-01-27T07:42:34;17.57;;;8.83;;
20080;SDS011;10200;49.232;9.222;2024-01-27T07:45:00;22.57;;;9.20;;
20080;SDS011;10200;49.232;9.222;2024-01-27T07:47:26;20.03;;;8.30;;
20080;SDS011;10200;49.232;9.222;2024-01-27T07:49:52;22.00;;;8.50;;
20080;SDS011;10200;49.232;9.222;2024-01-27T07:52:18;17.40;;;8.07;;
20080;SDS011;10200;49.232;9.222;2024-01-27T07:54:44;16.37;;;8.27;;
20080;SDS011;10200;49.232;9.222;2024-01-27T07:57:10;16.83;;;9.93;;
20080;SDS011;10200;49.232;9.222;2024-01-27T07:59:37;11.87;;;8.30;;
20080;SDS011;10200;49.232;9.222;2024-01-27T08:02:03;17.90;;;8.20;;
20080;SDS011;10200;49.232;9.222;2024-01-27T08:04:29;13.77;;;8.27;;
20080;SDS011;10200;49.232;9.222;2024-01-27T08:06:55;11.00;;;7.77;;
20080;SDS011;10200;49.232;9.222;2024-01-27T08:09:21;16.73;;;8.40;;
20080;SDS011;10200;49.232;9.222;2024-01-27T08:11:47;16.03;;;8.53;;
20080;SDS011;10200;49.232;9.222;2024-01-27T08:14:17;13.50;;;8.43;;
20080;SDS011;10200;49.232;9.222;2024-01-27T08:16:43;15.33;;;8.17;;
20080;SDS011;10200;49.232;9.222;2024-01-27T08:19:09;11.83;;;8.43;;
20080;SDS011;10200;49.232;9.222;2024-01-27T08:21:35;10.83;;;7.60;;
20080;SDS011;10200;49.232;9.222;2024-01-27T08:24:01;12.37;;;8.10;;
20080;SDS011;10200;49.232;9.222;2024-01-27T08:26:28;10.10;;;7.07;;
20080;SDS011;10200;49.232;9.222;2024-01-27T08:28:53;9.83;;;6.47;;
20080;SDS011;10200;49.232;9.222;2024-01-27T08:31:21;9.80;;;7.27;;
20080;SDS011;10200;49.232;9.222;2024-01-27T08:33:46;12.10;;;9.40;;
20080;SDS011;10200;49.232;9.222;2024-01-27T08:36:13;14.23;;;8.90;;
20080;SDS011;10200;49.232;9.222;2024-01-27T08:38:39;13.53;;;9.50;;
20080;SDS011;10200;49.232;9.222;2024-01-27T08:41:05;17.13;;;9.10;;
20080;SDS011;10200;49.232;9.222;2024-01-27T08:43:30;25.37;;;10.43;;
20080;SDS011;10200;49.232;9.222;2024-01-27T08:45:56;17.00;;;10.57;;
20080;SDS011;10200;49.232;9.222;2024-01-27T08:48:22;14.33;;;9.80;;
20080;SDS011;10200;49.232;9.222;2024-01-27T08:50:49;14.37;;;9.67;;
20080;SDS011;10200;49.232;9.222;2024-01-27T08:53:14;11.60;;;8.10;;
20080;SDS011;10200;49.232;9.222;2024-01-27T08:55:40;13.23;;;9.13;;
20080;SDS011;10200;49.232;9.222;2024-01-27T08:58:06;17.70;;;11.43;;
20080;SDS011;10200;49.232;9.222;2024-01-27T09:00:31;13.33;;;9.50;;
20080;SDS011;10200;49.232;9.222;2024-01-27T09:02:59;16.93;;;10.07;;
20080;SDS011;10200;49.232;9.222;2024-01-27T09:05:24;10.30;;;8.13;;
20080;SDS011;10200;49.232;9.222;2024-01-27T09:07:52;12.27;;;9.07;;
20080;SDS011;10200;49.232;9.222;2024-01-27T09:10:18;12.83;;;7.80;;
20080;SDS011;10200;49.232;9.222;2024-01-27T09:12:44;13.50;;;8.63;;
20080;SDS011;10200;49.232;9.222;2024-01-27T09:15:10;12.73;;;7.40;;
20080;SDS011;10200;49.232;9.222;2024-01-27T09:17:36;12.43;;;7.80;;
20080;SDS011;10200;49.232;9.222;2024-01-27T09:20:02;15.40;;;8.17;;
20080;SDS011;10200;49.232;9.222;2024-01-27T09:22:28;11.23;;;7.30;;
20080;SDS011;10200;49.232;9.222;2024-01-27T09:24:54;12.73;;;8.13;;
20080;SDS011;10200;49.232;9.222;2024-01-27T09:27:20;11.20;;;7.00;;
20080;SDS011;10200;49.232;9.222;2024-01-27T09:29:47;10.07;;;7.17;;
20080;SDS011;10200;49.232;9.222;2024-01-27T09:32:13;10.93;;;7.50;;
20080;SDS011;10200;49.232;9.222;2024-01-27T09:34:39;14.37;;;8.20;;
20080;SDS011;10200;49.232;9.222;2024-01-27T09:37:05;12.27;;;9.10;;
20080;SDS011;10200;49.232;9.222;2024-01-27T09:39:30;16.80;;;9.53;;
20080;SDS011;10200;49.232;9.222;2024-01-27T09:41:56;13.93;;;9.07;;
20080;SDS011;10200;49.232;9.222;2024-01-27T09:44:23;11.10;;;8.43;;
20080;SDS011;10200;49.232;9.222;2024-01-27T09:46:52;10.27;;;7.07;;
20080;SDS011;10200;49.232;9.222;2024-01-27T09:49:20;9.80;;;7.50;;
20080;SDS011;10200;49.232;9.222;2024-01-27T09:51:47;10.17;;;7.03;;
20080;SDS011;10200;49.232;9.222;2024-01-27T09:54:14;12.60;;;6.23;;
20080;SDS011;10200;49.232;9.222;2024-01-27T09:56:40;12.03;;;6.57;;
20080;SDS011;10200;49.232;9.222;2024-01-27T09:59:05;8.60;;;6.70;;
20080;SDS011;10200;49.232;9.222;2024-01-27T10:01:33;8.93;;;6.70;;
20080;SDS011;10200;49.232;9.222;2024-01-27T10:04:00;11.17;;;6.57;;
20080;SDS011;10200;49.232;9.222;2024-01-27T10:06:27;8.93;;;6.23;;
20080;SDS011;10200;49.232;9.222;2024-01-27T10:08:54;8.57;;;5.53;;
20080;SDS011;10200;49.232;9.222;2024-01-27T10:11:20;12.03;;;6.37;;
20080;SDS011;10200;49.232;9.222;2024-01-27T10:13:56;9.07;;;5.73;;
20080;SDS011;10200;49.232;9.222;2024-01-27T10:16:26;11.23;;;6.80;;
20080;SDS011;10200;49.232;9.222;2024-01-27T10:18:59;10.77;;;6.00;;
20080;SDS011;10200;49.232;9.222;2024-01-27T10:21:29;10.07;;;6.80;;
20080;SDS011;10200;49.232;9.222;2024-01-27T10:23:54;8.53;;;6.20;;
20080;SDS011;10200;49.232;9.222;2024-01-27T10:26:20;14.67;;;6.40;;
20080;SDS011;10200;49.232;9.222;2024-01-27T10:28:55;10.97;;;6.23;;
20080;SDS011;10200;49.232;9.222;2024-01-27T10:31:28;15.93;;;6.90;;
20080;SDS011;10200;49.232;9.222;2024-01-27T10:33:55;10.23;;;6.70;;
20080;SDS011;10200;49.232;9.222;2024-01-27T10:36:24;13.50;;;7.67;;
20080;SDS011;10200;49.232;9.222;2024-01-27T10:38:54;10.90;;;6.70;;
20080;SDS011;10200;49.232;9.222;2024-01-27T10:43:52;8.53;;;5.37;;
20080;SDS011;10200;49.232;9.222;2024-01-27T10:46:19;8.10;;;5.83;;
20080;SDS011;10200;49.232;9.222;2024-01-27T10:49:05;7.47;;;5.73;;
20080;SDS011;10200;49.232;9.222;2024-01-27T10:51:35;7.90;;;5.80;;
20080;SDS011;10200;49.232;9.222;2024-01-27T10:54:02;6.13;;;4.57;;
20080;SDS011;10200;49.232;9.222;2024-01-27T10:56:31;10.20;;;5.20;;
20080;SDS011;10200;49.232;9.222;2024-01-27T10:58:59;10.40;;;5.50;;
20080;SDS011;10200;49.232;9.222;2024-01-27T11:01:25;13.30;;;5.37;;
20080;SDS011;10200;49.232;9.222;2024-01-27T11:03:53;11.83;;;6.17;;
20080;SDS011;10200;49.232;9.222;2024-01-27T11:06:21;9.77;;;5.30;;
20080;SDS011;10200;49.232;9.222;2024-01-27T11:08:49;11.47;;;5.93;;
20080;SDS011;10200;49.232;9.222;2024-01-27T11:11:16;12.83;;;5.93;;
20080;SDS011;10200;49.232;9.222;2024-01-27T11:13:43;10.67;;;5.87;;
20080;SDS011;10200;49.232;9.222;2024-01-27T11:16:17;9.37;;;4.90;;
20080;SDS011;10200;49.232;9.222;2024-01-27T11:18:43;13.40;;;5.93;;
20080;SDS011;10200;49.232;9.222;2024-01-27T11:21:16;11.27;;;6.47;;
20080;SDS011;10200;49.232;9.222;2024-01-27T11:23:42;10.80;;;5.40;;
20080;SDS011;10200;49.232;9.222;2024-01-27T11:26:10;6.73;;;4.70;;
20080;SDS011;10200;49.232;9.222;2024-01-27T11:28:39;10.93;;;4.73;;
20080;SDS011;10200;49.232;9.222;2024-01-27T11:31:06;7.37;;;5.43;;
20080;SDS011;10200;49.232;9.222;2024-01-27T11:33:33;11.83;;;4.93;;
20080;SDS011;10200;49.232;9.222;2024-01-27T11:36:05;10.90;;;4.60;;
20080;SDS011;10200;49.232;9.222;2024-01-27T11:38:31;8.80;;;4.17;;
20080;SDS011;10200;49.232;9.222;2024-01-27T11:40:59;11.60;;;4.27;;
20080;SDS011;10200;49.232;9.222;2024-01-27T11:43:26;11.37;;;5.03;;
20080;SDS011;10200;49.232;9.222;2024-01-27T11:45:55;12.73;;;4.30;;
20080;SDS011;10200;49.232;9.222;2024-01-27T11:48:22;10.73;;;3.87;;
20080;SDS011;10200;49.232;9.222;2024-01-27T11:51:00;7.07;;;3.67;;
20080;SDS011;10200;49.232;9.222;2024-01-27T11:53:35;8.73;;;2.90;;
20080;SDS011;10200;49.232;9.222;2024-01-27T11:56:01;8.70;;;3.37;;
20080;SDS011;10200;49.232;9.222;2024-01-27T11:58:27;10.00;;;3.67;;
20080;SDS011;10200;49.232;9.222;2024-01-27T12:00:52;8.00;;;3.10;;
20080;SDS011;10200;49.232;9.222;2024-01-27T12:03:18;7.40;;;3.53;;
20080;SDS011;10200;49.232;9.222;2024-01-27T12:05:44;5.73;;;3.17;;
20080;SDS011;10200;49.232;9.222;2024-01-27T12:08:10;11.43;;;3.50;;
20080;SDS011;10200;49.232;9.222;2024-01-27T12:10:36;11.53;;;4.10;;
20080;SDS011;10200;49.232;9.222;2024-01-27T12:13:02;7.63;;;3.80;;
20080;SDS011;10200;49.232;9.222;2024-01-27T12:15:28;8.83;;;3.40;;
20080;SDS011;10200;49.232;9.222;2024-01-27T12:17:53;7.63;;;3.93;;
20080;SDS011;10200;49.232;9.222;2024-01-27T12:20:19;6.33;;;3.33;;
20080;SDS011;10200;49.232;9.222;2024-01-27T12:22:48;8.23;;;3.97;;
20080;SDS011;10200;49.232;9.222;2024-01-27T12:25:17;12.07;;;3.87;;
20080;SDS011;10200;49.232;9.222;2024-01-27T12:27:45;5.43;;;2.93;;
20080;SDS011;10200;49.232;9.222;2024-01-27T12:30:11;6.17;;;3.40;;
20080;SDS011;10200;49.232;9.222;2024-01-27T12:32:37;8.67;;;3.40;;
20080;SDS011;10200;49.232;9.222;2024-01-27T12:35:06;10.33;;;3.97;;
20080;SDS011;10200;49.232;9.222;2024-01-27T12:37:32;6.63;;;2.80;;
20080;SDS011;10200;49.232;9.222;2024-01-27T12:39:59;5.27;;;2.67;;
20080;SDS011;10200;49.232;9.222;2024-01-27T12:42:25;6.87;;;2.77;;
20080;SDS011;10200;49.232;9.222;2024-01-27T12:44:50;7.53;;;3.53;;
20080;SDS011;10200;49.232;9.222;2024-01-27T12:47:16;9.63;;;2.93;;
20080;SDS011;10200;49.232;9.222;2024-01-27T12:49:42;5.70;;;2.50;;
20080;SDS011;10200;49.232;9.222;2024-01-27T12:52:07;6.10;;;2.23;;
20080;SDS011;10200;49.232;9.222;2024-01-27T12:54:33;9.87;;;3.07;;
20080;SDS011;10200;49.232;9.222;2024-01-27T12:56:59;6.03;;;2.60;;
20080;SDS011;10200;49.232;9.222;2024-01-27T12:59:26;12.60;;;4.03;;
20080;SDS011;10200;49.232;9.222;2024-01-27T13:01:52;8.53;;;3.03;;
20080;SDS011;10200;49.232;9.222;2024-01-27T13:04:18;5.30;;;2.83;;
20080;SDS011;10200;49.232;9.222;2024-01-27T13:06:43;7.03;;;2.47;;
20080;SDS011;10200;49.232;9.222;2024-01-27T13:09:10;12.33;;;2.77;;
20080;SDS011;10200;49.232;9.222;2024-01-27T13:11:38;7.67;;;2.70;;
20080;SDS011;10200;49.232;9.222;2024-01-27T13:14:04;7.07;;;2.33;;
20080;SDS011;10200;49.232;9.222;2024-01-27T13:16:30;6.33;;;2.53;;
20080;SDS011;10200;49.232;9.222;2024-01-27T13:18:56;7.20;;;2.57;;
20080;SDS011;10200;49.232;9.222;2024-01-27T13:21:22;6.50;;;2.47;;
20080;SDS011;10200;49.232;9.222;2024-01-27T13:23:47;4.40;;;2.53;;
20080;SDS011;10200;49.232;9.222;2024-01-27T13:26:13;5.30;;;2.03;;
20080;SDS011;10200;49.232;9.222;2024-01-27T13:28:39;6.73;;;2.40;;
20080;SDS011;10200;49.232;9.222;2024-01-27T13:31:05;5.73;;;2.80;;
20080;SDS011;10200;49.232;9.222;2024-01-27T13:33:32;10.33;;;2.33;;
20080;SDS011;10200;49.232;9.222;2024-01-27T13:36:00;6.90;;;2.53;;
20080;SDS011;10200;49.232;9.222;2024-01-27T13:38:25;8.03;;;2.27;;
20080;SDS011;10200;49.232;9.222;2024-01-27T13:40:51;3.80;;;1.97;;
20080;SDS011;10200;49.232;9.222;2024-01-27T13:43:17;5.97;;;2.17;;
20080;SDS011;10200;49.232;9.222;2024-01-27T13:45:43;8.20;;;2.87;;
20080;SDS011;10200;49.232;9.222;2024-01-27T13:48:09;4.83;;;1.97;;
20080;SDS011;10200;49.232;9.222;2024-01-27T13:50:35;5.77;;;2.47;;
20080;SDS011;10200;49.232;9.222;2024-01-27T13:53:01;5.83;;;2.27;;
20080;SDS011;10200;49.232;9.222;2024-01-27T13:55:28;11.90;;;2.63;;
20080;SDS011;10200;49.232;9.222;2024-01-27T13:57:55;7.23;;;1.80;;
20080;SDS011;10200;49.232;9.222;2024-01-27T14:00:21;7.67;;;2.20;;
20080;SDS011;10200;49.232;9.222;2024-01-27T14:02:46;4.17;;;1.70;;
20080;SDS011;10200;49.232;9.222;2024-01-27T14:05:12;9.03;;;2.37;;
20080;SDS011;10200;49.232;9.222;2024-01-27T14:07:38;9.50;;;2.43;;
20080;SDS011;10200;49.232;9.222;2024-01-27T14:10:04;4.77;;;1.67;;
20080;SDS011;10200;49.232;9.222;2024-01-27T14:12:29;5.93;;;1.93;;
20080;SDS011;10200;49.232;9.222;2024-01-27T14:15:03;6.23;;;1.93;;
20080;SDS011;10200;49.232;9.222;2024-01-27T14:17:35;3.67;;;1.30;;
20080;SDS011;10200;49.232;9.222;2024-01-27T14:20:01;5.53;;;1.90;;
20080;SDS011;10200;49.232;9.222;2024-01-27T14:22:28;3.00;;;1.27;;
20080;SDS011;10200;49.232;9.222;2024-01-27T14:24:54;5.40;;;1.33;;
20080;SDS011;10200;49.232;9.222;2024-01-27T14:27:20;5.30;;;1.83;;
20080;SDS011;10200;49.232;9.222;2024-01-27T14:29:51;6.40;;;1.60;;
20080;SDS011;10200;49.232;9.222;2024-01-27T14:32:18;2.77;;;1.30;;
20080;SDS011;10200;49.232;9.222;2024-01-27T14:34:44;7.53;;;1.70;;
20080;SDS011;10200;49.232;9.222;2024-01-27T14:37:09;4.57;;;1.60;;
20080;SDS011;10200;49.232;9.222;2024-01-27T14:39:35;4.43;;;1.70;;
20080;SDS011;10200;49.232;9.222;2024-01-27T14:42:02;10.03;;;3.97;;